Relevés horaires Bierset (Belgique)


Relevés horaires à Bierset - Mardi 26 Sept. 2017
Heure UTC1 Température [°C] Vent [km/h] Hum. [%] Pres.4 [hPa] Visi. [Km] Nébu. [octa] Préc.5 [mm] Cond.
2m. Res. Ros. Dir.2 Vit. Moy. Raf.3
23:00 13.5 13.5 11.5 SSE 5.6 7.4 9.3 88 1022.6(-0.5/3h) 14 3/8 -- --
22:00 14.1 14.1 9.3 SE 5.6 5.6 20.4 73 1022.6(0.2/3h) 14 3/8 -- --
21:00 14.5 14.5 9.8 SE 5.6 7.4 20.4 73 1022.7(0.7/3h) 14 3/8 -- --
20:00 14.9 14.9 9.9 E 3.7 5.6 11.1 72 1023(1.3/3h) 15 3/8 -- --
19:00 15.2 15.2 11.2 ENE 5.6 5.6 7.4 77 1022.6(1.4/3h) 18 3/8 -- --
18:00 15.8 15.8 10.9 ENE 5.6 7.4 9.3 73 1021.9(0.8/3h) 18 3/8 0/12h
--
17:00 16.3 16.3 10.4 NE 5.6 5.6 7.4 68 1021.6(0.2/3h) 20 2/8 -- --
16:00 18.7 18.7 8.9 N 3.7 5.6 9.3 53 1021(-0.4/3h) 20 1/8 -- --
15:00 19.2 19.2 9.9 NE 5.6 5.6 9.3 55 1020.9(-0.7/3h) 20 3/8 -- --
14:00 19.0 19.0 10.0 NE 3.7 5.6 9.3 56 1021.1(-0.5/3h) 20 4/8 -- --
13:00 18.4 18.4 10.5 NNE 5.6 5.6 9.3 60 1021.4(0.1/3h) 20 4/8 -- --
12:00 18.6 18.6 10.7 NNO 1.9 3.7 14.8 60 1021.6(0.3/3h) 20 4/8 0/6h
--
11:00 17.8 17.8 11.2 NNO 1.9 1.9 5.6 65 1021.8(0.5/3h) 20 5/8 -- --
10:00 16.5 16.5 11.9 SSE 1.9 1.9 3.7 74 1021.7(0.5/3h) 20 4/8 -- --
09:00 14.7 14.7 10.8 S 1.9 3.7 14.8 77 1021.6(0.7/3h) 20 4/8 -- --
08:00 13.7 13.7 8.6 ESE 3.7 3.7 14.8 71 1021.5(1.0/3h) 20 4/8 -- --
07:00 13.0 13.0 10.5 ESE 1.9 3.7 5.6 85 1021.5(0.9/3h) 20 4/8 -- --
06:00 12.4 12.4 8.6 SE 1.9 5.6 18.5 78 1021.1(0.5/3h) 20 4/8 0/12h
--
05:00 12.6 12.6 10.7 SE 3.7 5.6 18.5 88 1020.6(0.0/3h) 20 5/8 -- --
04:00 12.7 12.7 10.4 ESE 1.9 3.7 13.0 86 1020.6(0.0/3h) 20 5/8 -- --
03:00 14.0 14.0 11.9 SE 3.7 3.7 13.0 87 1020.5(0.2/3h) 14 5/8 -- --
02:00 13.3 13.3 12.0 ESE 3.7 3.7 5.6 92 1020.6(-0.1/3h) 14 5/8 -- --
01:00 12.3 12.3 6.1 SE 3.7 3.7 5.6 66 1020.7(-0.1/3h) 14 4/8 -- --
00:00 12.8 12.8 12.8 SE 3.7 7.4 14.8 100 1020.7(-0.1/3h) 14 3/8 0/6h
0/24h
--

1 Coordinated Universal Time. Actuellement il est 10:00 locale et 08:00 UTC.

2 Le vent souffle depuis la direction indiquée vers la direction oposée.

3 Les rafales max. sont disponible 40 min après l'heure du relevé.

4 Pour les stations d'altitude (plus de 600m) le géopotentiel du niveau le plus proche de la pression obligatoire est indiqué.

5 Les stations disposant d'un diffuseur peuvent indiquer "trace". Cela signifie que des précipitations ont touchés le sol mais que la quantité est inférieure à 0.1 mm.

Récapitulatif de la journée
Température [°C] Vent [km/h] Ensoleillement4 [h] Precipitations totale5 [mm] Pression [Hpa]
Min1 Max.2 Moy.3 Max. Min Max.
11.7 19.4 5 20.4 0 h 0 min 0 1020.5 1023.0

1 Température minimale relevée entre 18:00 UTC la veille et 18:00 UTC le jour donné.

2 Température maximale relevée entre 06:00 UTC le jour donné et 06:00 UTC le lendemain.

3 Vent moyen de la journée basé sur les relevés horaires.

4 Ensoleillement en heures relevé entre 06:00 UTC la veille et 06:00 UTC le jour donné.

5 Précipitations totales tombées entre 06:00 UTC la jour donné et 06:00 UTC le lendemain.

Graphiques horaires